Terminal Aerodrome Forecast
Issued by NWS

Home | Current Version | Previous Version | Text Only | Print | Product List | Glossary On
Versions: 1 2 3 4 5 6 7 8 9 10 11 12 13
490
FTAK31 PAJN 250526
TAFAPG
TAF
PAPG 250526Z 2506/2606 26004KT P6SM VCSH SCT025 OVC035
      TEMPO 2506/2509 VRB03KT 6SM -SHRA BR BKN020 OVC030
     FM250900 00000KT P6SM VCFG FEW005 FEW025 BKN040
      TEMPO 2509/2513 4SM BR BKN005
     FM251800 06004KT P6SM SCT050
      AMD LTD TO CLD VIS AND WIND 2506/2515=

USA.gov is the U.S. government's official web portal to all federal, state and local government web resources and services.